sensor_id;sensor_type;location;lat;lon;timestamp;P1;durP1;ratioP1;P2;durP2;ratioP2
6626;SDS011;3349;49.830;8.748;2022-07-29T00:01:24;3.97;;;3.58;;
6626;SDS011;3349;49.830;8.748;2022-07-29T00:03:50;4.35;;;3.85;;
6626;SDS011;3349;49.830;8.748;2022-07-29T00:06:17;3.67;;;3.13;;
6626;SDS011;3349;49.830;8.748;2022-07-29T00:08:47;5.75;;;3.72;;
6626;SDS011;3349;49.830;8.748;2022-07-29T00:11:13;7.53;;;3.17;;
6626;SDS011;3349;49.830;8.748;2022-07-29T00:13:40;4.50;;;3.33;;
6626;SDS011;3349;49.830;8.748;2022-07-29T00:16:07;4.85;;;3.53;;
6626;SDS011;3349;49.830;8.748;2022-07-29T00:18:34;4.38;;;3.28;;
6626;SDS011;3349;49.830;8.748;2022-07-29T00:21:01;4.88;;;3.10;;
6626;SDS011;3349;49.830;8.748;2022-07-29T00:23:27;4.30;;;3.20;;
6626;SDS011;3349;49.830;8.748;2022-07-29T00:25:55;5.45;;;3.85;;
6626;SDS011;3349;49.830;8.748;2022-07-29T00:28:22;6.28;;;3.25;;
6626;SDS011;3349;49.830;8.748;2022-07-29T00:30:49;5.43;;;3.42;;
6626;SDS011;3349;49.830;8.748;2022-07-29T00:33:16;3.80;;;3.50;;
6626;SDS011;3349;49.830;8.748;2022-07-29T00:35:42;4.75;;;3.42;;
6626;SDS011;3349;49.830;8.748;2022-07-29T00:38:08;4.07;;;3.13;;
6626;SDS011;3349;49.830;8.748;2022-07-29T00:40:35;4.38;;;3.00;;
6626;SDS011;3349;49.830;8.748;2022-07-29T00:43:03;4.15;;;3.28;;
6626;SDS011;3349;49.830;8.748;2022-07-29T00:45:30;6.43;;;3.13;;
6626;SDS011;3349;49.830;8.748;2022-07-29T00:47:57;6.20;;;3.20;;
6626;SDS011;3349;49.830;8.748;2022-07-29T00:50:24;7.78;;;3.25;;
6626;SDS011;3349;49.830;8.748;2022-07-29T00:52:52;4.60;;;3.33;;
6626;SDS011;3349;49.830;8.748;2022-07-29T00:55:19;4.25;;;2.85;;
6626;SDS011;3349;49.830;8.748;2022-07-29T00:57:45;4.00;;;3.20;;
6626;SDS011;3349;49.830;8.748;2022-07-29T01:00:14;4.53;;;3.33;;
6626;SDS011;3349;49.830;8.748;2022-07-29T01:02:43;4.40;;;3.42;;
6626;SDS011;3349;49.830;8.748;2022-07-29T01:05:13;5.15;;;3.05;;
6626;SDS011;3349;49.830;8.748;2022-07-29T01:07:40;5.43;;;3.70;;
6626;SDS011;3349;49.830;8.748;2022-07-29T01:10:09;3.75;;;3.22;;
6626;SDS011;3349;49.830;8.748;2022-07-29T01:12:38;3.80;;;3.33;;
6626;SDS011;3349;49.830;8.748;2022-07-29T01:15:05;4.40;;;3.58;;
6626;SDS011;3349;49.830;8.748;2022-07-29T01:17:36;4.90;;;3.35;;
6626;SDS011;3349;49.830;8.748;2022-07-29T01:20:08;4.00;;;3.42;;
6626;SDS011;3349;49.830;8.748;2022-07-29T01:23:07;3.85;;;3.33;;
6626;SDS011;3349;49.830;8.748;2022-07-29T01:26:00;3.67;;;3.30;;
6626;SDS011;3349;49.830;8.748;2022-07-29T01:28:45;4.25;;;3.00;;
6626;SDS011;3349;49.830;8.748;2022-07-29T01:31:39;3.60;;;3.30;;
6626;SDS011;3349;49.830;8.748;2022-07-29T01:34:11;6.32;;;3.10;;
6626;SDS011;3349;49.830;8.748;2022-07-29T01:36:48;5.95;;;3.17;;
6626;SDS011;3349;49.830;8.748;2022-07-29T01:39:23;3.50;;;2.83;;
6626;SDS011;3349;49.830;8.748;2022-07-29T01:41:56;4.07;;;2.70;;
6626;SDS011;3349;49.830;8.748;2022-07-29T01:44:30;4.20;;;2.80;;
6626;SDS011;3349;49.830;8.748;2022-07-29T01:47:00;4.13;;;2.78;;
6626;SDS011;3349;49.830;8.748;2022-07-29T01:49:33;3.33;;;2.95;;
6626;SDS011;3349;49.830;8.748;2022-07-29T01:52:07;6.18;;;2.88;;
6626;SDS011;3349;49.830;8.748;2022-07-29T01:54:37;3.38;;;2.83;;
6626;SDS011;3349;49.830;8.748;2022-07-29T01:57:08;4.50;;;3.03;;
6626;SDS011;3349;49.830;8.748;2022-07-29T01:59:38;5.03;;;2.80;;
6626;SDS011;3349;49.830;8.748;2022-07-29T02:02:07;4.22;;;2.92;;
6626;SDS011;3349;49.830;8.748;2022-07-29T02:04:37;5.25;;;2.95;;
6626;SDS011;3349;49.830;8.748;2022-07-29T02:07:06;4.85;;;2.95;;
6626;SDS011;3349;49.830;8.748;2022-07-29T02:09:35;5.55;;;2.95;;
6626;SDS011;3349;49.830;8.748;2022-07-29T02:12:05;4.07;;;2.85;;
6626;SDS011;3349;49.830;8.748;2022-07-29T02:14:33;5.32;;;2.90;;
6626;SDS011;3349;49.830;8.748;2022-07-29T02:17:04;5.78;;;2.53;;
6626;SDS011;3349;49.830;8.748;2022-07-29T02:19:32;4.47;;;3.10;;
6626;SDS011;3349;49.830;8.748;2022-07-29T02:22:00;5.00;;;2.90;;
6626;SDS011;3349;49.830;8.748;2022-07-29T02:24:28;6.75;;;3.05;;
6626;SDS011;3349;49.830;8.748;2022-07-29T02:26:56;8.27;;;2.88;;
6626;SDS011;3349;49.830;8.748;2022-07-29T02:29:25;5.22;;;3.20;;
6626;SDS011;3349;49.830;8.748;2022-07-29T02:31:54;4.75;;;3.28;;
6626;SDS011;3349;49.830;8.748;2022-07-29T02:34:24;4.55;;;3.05;;
6626;SDS011;3349;49.830;8.748;2022-07-29T02:36:51;3.80;;;2.90;;
6626;SDS011;3349;49.830;8.748;2022-07-29T02:39:20;5.38;;;2.90;;
6626;SDS011;3349;49.830;8.748;2022-07-29T02:41:49;3.33;;;2.70;;
6626;SDS011;3349;49.830;8.748;2022-07-29T02:44:18;4.50;;;2.83;;
6626;SDS011;3349;49.830;8.748;2022-07-29T02:46:47;5.72;;;3.08;;
6626;SDS011;3349;49.830;8.748;2022-07-29T02:49:18;4.40;;;2.92;;
6626;SDS011;3349;49.830;8.748;2022-07-29T02:51:58;9.65;;;3.03;;
6626;SDS011;3349;49.830;8.748;2022-07-29T02:54:30;5.93;;;3.05;;
6626;SDS011;3349;49.830;8.748;2022-07-29T02:57:14;7.18;;;2.90;;
6626;SDS011;3349;49.830;8.748;2022-07-29T02:59:45;5.18;;;2.60;;
6626;SDS011;3349;49.830;8.748;2022-07-29T03:02:16;3.42;;;2.67;;
6626;SDS011;3349;49.830;8.748;2022-07-29T03:04:44;5.75;;;3.00;;
6626;SDS011;3349;49.830;8.748;2022-07-29T03:07:15;5.13;;;2.70;;
6626;SDS011;3349;49.830;8.748;2022-07-29T03:09:46;3.60;;;2.65;;
6626;SDS011;3349;49.830;8.748;2022-07-29T03:12:13;5.32;;;3.13;;
6626;SDS011;3349;49.830;8.748;2022-07-29T03:14:42;4.30;;;2.88;;
6626;SDS011;3349;49.830;8.748;2022-07-29T03:17:09;5.57;;;2.60;;
6626;SDS011;3349;49.830;8.748;2022-07-29T03:19:36;7.35;;;3.30;;
6626;SDS011;3349;49.830;8.748;2022-07-29T03:22:04;5.43;;;2.90;;
6626;SDS011;3349;49.830;8.748;2022-07-29T03:24:32;5.63;;;3.10;;
6626;SDS011;3349;49.830;8.748;2022-07-29T03:27:00;6.47;;;3.20;;
6626;SDS011;3349;49.830;8.748;2022-07-29T03:29:28;4.97;;;2.80;;
6626;SDS011;3349;49.830;8.748;2022-07-29T03:31:55;5.65;;;3.42;;
6626;SDS011;3349;49.830;8.748;2022-07-29T03:34:22;5.45;;;2.90;;
6626;SDS011;3349;49.830;8.748;2022-07-29T03:36:48;7.18;;;3.08;;
6626;SDS011;3349;49.830;8.748;2022-07-29T03:39:18;4.68;;;2.78;;
6626;SDS011;3349;49.830;8.748;2022-07-29T03:41:49;4.15;;;3.17;;
6626;SDS011;3349;49.830;8.748;2022-07-29T03:44:21;6.13;;;2.88;;
6626;SDS011;3349;49.830;8.748;2022-07-29T03:46:48;5.15;;;3.03;;
6626;SDS011;3349;49.830;8.748;2022-07-29T03:49:17;4.25;;;3.08;;
6626;SDS011;3349;49.830;8.748;2022-07-29T03:51:46;5.20;;;2.95;;
6626;SDS011;3349;49.830;8.748;2022-07-29T03:54:13;4.75;;;3.15;;
6626;SDS011;3349;49.830;8.748;2022-07-29T03:56:43;3.83;;;2.90;;
6626;SDS011;3349;49.830;8.748;2022-07-29T03:59:12;6.13;;;2.97;;
6626;SDS011;3349;49.830;8.748;2022-07-29T04:01:41;4.50;;;2.72;;
6626;SDS011;3349;49.830;8.748;2022-07-29T04:04:09;8.70;;;3.30;;
6626;SDS011;3349;49.830;8.748;2022-07-29T04:06:39;6.63;;;3.42;;
6626;SDS011;3349;49.830;8.748;2022-07-29T04:09:07;4.32;;;3.05;;
6626;SDS011;3349;49.830;8.748;2022-07-29T04:11:33;5.45;;;2.97;;
6626;SDS011;3349;49.830;8.748;2022-07-29T04:14:02;5.88;;;3.13;;
6626;SDS011;3349;49.830;8.748;2022-07-29T04:16:30;6.60;;;3.05;;
6626;SDS011;3349;49.830;8.748;2022-07-29T04:18:57;5.05;;;3.17;;
6626;SDS011;3349;49.830;8.748;2022-07-29T04:21:24;6.10;;;3.20;;
6626;SDS011;3349;49.830;8.748;2022-07-29T04:23:51;4.68;;;3.10;;
6626;SDS011;3349;49.830;8.748;2022-07-29T04:26:18;4.72;;;3.60;;
6626;SDS011;3349;49.830;8.748;2022-07-29T04:28:45;3.92;;;3.38;;
6626;SDS011;3349;49.830;8.748;2022-07-29T04:31:15;4.63;;;3.55;;
6626;SDS011;3349;49.830;8.748;2022-07-29T04:33:42;6.30;;;3.28;;
6626;SDS011;3349;49.830;8.748;2022-07-29T04:36:09;7.22;;;3.78;;
6626;SDS011;3349;49.830;8.748;2022-07-29T04:38:38;4.18;;;2.97;;
6626;SDS011;3349;49.830;8.748;2022-07-29T04:41:06;7.32;;;3.10;;
6626;SDS011;3349;49.830;8.748;2022-07-29T04:43:33;5.70;;;3.42;;
6626;SDS011;3349;49.830;8.748;2022-07-29T04:46:00;7.10;;;3.70;;
6626;SDS011;3349;49.830;8.748;2022-07-29T04:48:28;6.00;;;3.45;;
6626;SDS011;3349;49.830;8.748;2022-07-29T04:50:55;3.72;;;3.42;;
6626;SDS011;3349;49.830;8.748;2022-07-29T04:53:22;4.70;;;3.45;;
6626;SDS011;3349;49.830;8.748;2022-07-29T04:55:49;7.97;;;3.55;;
6626;SDS011;3349;49.830;8.748;2022-07-29T04:58:16;4.63;;;3.40;;
6626;SDS011;3349;49.830;8.748;2022-07-29T05:00:43;5.68;;;4.03;;
6626;SDS011;3349;49.830;8.748;2022-07-29T05:03:09;5.97;;;3.55;;
6626;SDS011;3349;49.830;8.748;2022-07-29T05:05:37;7.47;;;3.50;;
6626;SDS011;3349;49.830;8.748;2022-07-29T05:08:05;4.97;;;3.90;;
6626;SDS011;3349;49.830;8.748;2022-07-29T05:10:32;7.28;;;3.92;;
6626;SDS011;3349;49.830;8.748;2022-07-29T05:13:02;8.73;;;3.40;;
6626;SDS011;3349;49.830;8.748;2022-07-29T05:15:30;4.97;;;3.45;;
6626;SDS011;3349;49.830;8.748;2022-07-29T05:17:58;4.38;;;3.28;;
6626;SDS011;3349;49.830;8.748;2022-07-29T05:20:25;5.15;;;3.42;;
6626;SDS011;3349;49.830;8.748;2022-07-29T05:22:54;9.02;;;3.88;;
6626;SDS011;3349;49.830;8.748;2022-07-29T05:25:21;4.90;;;3.78;;
6626;SDS011;3349;49.830;8.748;2022-07-29T05:27:48;7.40;;;3.40;;
6626;SDS011;3349;49.830;8.748;2022-07-29T05:30:15;6.50;;;3.67;;
6626;SDS011;3349;49.830;8.748;2022-07-29T05:32:42;4.75;;;3.88;;
6626;SDS011;3349;49.830;8.748;2022-07-29T05:35:09;7.47;;;4.07;;
6626;SDS011;3349;49.830;8.748;2022-07-29T05:37:36;5.32;;;3.65;;
6626;SDS011;3349;49.830;8.748;2022-07-29T05:40:05;5.68;;;3.63;;
6626;SDS011;3349;49.830;8.748;2022-07-29T05:42:33;5.68;;;3.40;;
6626;SDS011;3349;49.830;8.748;2022-07-29T05:45:00;8.40;;;3.88;;
6626;SDS011;3349;49.830;8.748;2022-07-29T05:47:27;6.28;;;3.72;;
6626;SDS011;3349;49.830;8.748;2022-07-29T05:49:54;7.63;;;3.90;;
6626;SDS011;3349;49.830;8.748;2022-07-29T05:52:21;7.93;;;3.70;;
6626;SDS011;3349;49.830;8.748;2022-07-29T05:54:48;4.90;;;3.22;;
6626;SDS011;3349;49.830;8.748;2022-07-29T05:57:16;5.57;;;3.42;;
6626;SDS011;3349;49.830;8.748;2022-07-29T05:59:44;5.07;;;3.60;;
6626;SDS011;3349;49.830;8.748;2022-07-29T06:02:11;9.65;;;3.90;;
6626;SDS011;3349;49.830;8.748;2022-07-29T06:04:37;12.18;;;3.55;;
6626;SDS011;3349;49.830;8.748;2022-07-29T06:07:05;5.75;;;3.58;;
6626;SDS011;3349;49.830;8.748;2022-07-29T06:09:32;5.35;;;3.80;;
6626;SDS011;3349;49.830;8.748;2022-07-29T06:11:59;8.82;;;4.45;;
6626;SDS011;3349;49.830;8.748;2022-07-29T06:14:27;7.35;;;4.13;;
6626;SDS011;3349;49.830;8.748;2022-07-29T06:16:54;14.07;;;4.05;;
6626;SDS011;3349;49.830;8.748;2022-07-29T06:19:21;8.50;;;3.38;;
6626;SDS011;3349;49.830;8.748;2022-07-29T06:21:47;8.73;;;3.28;;
6626;SDS011;3349;49.830;8.748;2022-07-29T06:24:14;5.35;;;3.80;;
6626;SDS011;3349;49.830;8.748;2022-07-29T06:26:41;7.38;;;3.80;;
6626;SDS011;3349;49.830;8.748;2022-07-29T06:29:08;5.97;;;3.45;;
6626;SDS011;3349;49.830;8.748;2022-07-29T06:31:38;5.20;;;3.65;;
6626;SDS011;3349;49.830;8.748;2022-07-29T06:34:05;7.45;;;3.53;;
6626;SDS011;3349;49.830;8.748;2022-07-29T06:36:34;8.10;;;3.88;;
6626;SDS011;3349;49.830;8.748;2022-07-29T06:39:03;4.68;;;3.25;;
6626;SDS011;3349;49.830;8.748;2022-07-29T06:41:30;5.35;;;3.50;;
6626;SDS011;3349;49.830;8.748;2022-07-29T06:43:57;7.78;;;4.50;;
6626;SDS011;3349;49.830;8.748;2022-07-29T06:46:24;6.60;;;3.95;;
6626;SDS011;3349;49.830;8.748;2022-07-29T06:48:52;5.57;;;3.90;;
6626;SDS011;3349;49.830;8.748;2022-07-29T06:51:19;6.63;;;3.40;;
6626;SDS011;3349;49.830;8.748;2022-07-29T06:53:46;6.65;;;4.20;;
6626;SDS011;3349;49.830;8.748;2022-07-29T06:56:13;5.40;;;4.03;;
6626;SDS011;3349;49.830;8.748;2022-07-29T06:58:39;5.80;;;3.95;;
6626;SDS011;3349;49.830;8.748;2022-07-29T07:01:07;8.35;;;4.32;;
6626;SDS011;3349;49.830;8.748;2022-07-29T07:03:33;4.93;;;3.90;;
6626;SDS011;3349;49.830;8.748;2022-07-29T07:06:01;7.47;;;4.28;;
6626;SDS011;3349;49.830;8.748;2022-07-29T07:08:28;7.50;;;3.92;;
6626;SDS011;3349;49.830;8.748;2022-07-29T07:10:55;6.00;;;4.35;;
6626;SDS011;3349;49.830;8.748;2022-07-29T07:13:22;7.35;;;4.45;;
6626;SDS011;3349;49.830;8.748;2022-07-29T07:15:49;6.97;;;4.53;;
6626;SDS011;3349;49.830;8.748;2022-07-29T07:18:16;8.35;;;3.97;;
6626;SDS011;3349;49.830;8.748;2022-07-29T07:20:44;8.27;;;4.25;;
6626;SDS011;3349;49.830;8.748;2022-07-29T07:23:12;6.82;;;4.13;;
6626;SDS011;3349;49.830;8.748;2022-07-29T07:25:39;8.13;;;4.00;;
6626;SDS011;3349;49.830;8.748;2022-07-29T07:28:07;7.10;;;4.32;;
6626;SDS011;3349;49.830;8.748;2022-07-29T07:30:33;7.93;;;4.18;;
6626;SDS011;3349;49.830;8.748;2022-07-29T07:33:00;8.30;;;4.30;;
6626;SDS011;3349;49.830;8.748;2022-07-29T07:35:27;6.22;;;4.30;;
6626;SDS011;3349;49.830;8.748;2022-07-29T07:37:54;6.40;;;4.50;;
6626;SDS011;3349;49.830;8.748;2022-07-29T07:40:22;7.63;;;4.43;;
6626;SDS011;3349;49.830;8.748;2022-07-29T07:42:50;7.00;;;4.55;;
6626;SDS011;3349;49.830;8.748;2022-07-29T07:45:17;5.97;;;4.13;;
6626;SDS011;3349;49.830;8.748;2022-07-29T07:47:45;7.18;;;4.13;;
6626;SDS011;3349;49.830;8.748;2022-07-29T07:50:11;7.13;;;4.53;;
6626;SDS011;3349;49.830;8.748;2022-07-29T07:52:45;5.95;;;4.10;;
6626;SDS011;3349;49.830;8.748;2022-07-29T07:55:13;4.80;;;4.28;;
6626;SDS011;3349;49.830;8.748;2022-07-29T07:57:42;11.10;;;4.55;;
6626;SDS011;3349;49.830;8.748;2022-07-29T08:00:09;5.32;;;4.30;;
6626;SDS011;3349;49.830;8.748;2022-07-29T08:02:36;6.78;;;4.63;;
6626;SDS011;3349;49.830;8.748;2022-07-29T08:05:04;5.28;;;4.35;;
6626;SDS011;3349;49.830;8.748;2022-07-29T08:07:31;5.78;;;4.50;;
6626;SDS011;3349;49.830;8.748;2022-07-29T08:09:58;5.70;;;4.38;;
6626;SDS011;3349;49.830;8.748;2022-07-29T08:12:25;7.35;;;4.65;;
6626;SDS011;3349;49.830;8.748;2022-07-29T08:14:53;6.80;;;4.53;;
6626;SDS011;3349;49.830;8.748;2022-07-29T08:17:20;5.75;;;4.78;;
6626;SDS011;3349;49.830;8.748;2022-07-29T08:19:47;6.72;;;4.50;;
6626;SDS011;3349;49.830;8.748;2022-07-29T08:22:14;8.00;;;5.00;;
6626;SDS011;3349;49.830;8.748;2022-07-29T08:24:41;7.10;;;4.40;;
6626;SDS011;3349;49.830;8.748;2022-07-29T08:27:17;8.65;;;4.50;;
6626;SDS011;3349;49.830;8.748;2022-07-29T08:29:44;5.95;;;4.80;;
6626;SDS011;3349;49.830;8.748;2022-07-29T08:32:12;5.55;;;4.43;;
6626;SDS011;3349;49.830;8.748;2022-07-29T08:34:39;5.45;;;4.40;;
6626;SDS011;3349;49.830;8.748;2022-07-29T08:37:06;5.03;;;4.10;;
6626;SDS011;3349;49.830;8.748;2022-07-29T08:39:33;5.40;;;4.55;;
6626;SDS011;3349;49.830;8.748;2022-07-29T08:42:00;4.80;;;4.40;;
6626;SDS011;3349;49.830;8.748;2022-07-29T08:44:27;5.55;;;4.88;;
6626;SDS011;3349;49.830;8.748;2022-07-29T08:46:54;5.03;;;4.43;;
6626;SDS011;3349;49.830;8.748;2022-07-29T08:49:22;6.00;;;4.45;;
6626;SDS011;3349;49.830;8.748;2022-07-29T08:51:49;5.95;;;4.82;;
6626;SDS011;3349;49.830;8.748;2022-07-29T08:54:16;5.25;;;4.75;;
6626;SDS011;3349;49.830;8.748;2022-07-29T08:56:44;5.93;;;4.55;;
6626;SDS011;3349;49.830;8.748;2022-07-29T08:59:15;6.68;;;4.80;;
6626;SDS011;3349;49.830;8.748;2022-07-29T09:01:45;6.75;;;5.07;;
6626;SDS011;3349;49.830;8.748;2022-07-29T09:04:13;7.05;;;4.65;;
6626;SDS011;3349;49.830;8.748;2022-07-29T09:06:44;5.30;;;4.60;;
6626;SDS011;3349;49.830;8.748;2022-07-29T09:09:14;5.97;;;4.60;;
6626;SDS011;3349;49.830;8.748;2022-07-29T09:11:41;8.27;;;4.90;;
6626;SDS011;3349;49.830;8.748;2022-07-29T09:14:09;5.15;;;4.65;;
6626;SDS011;3349;49.830;8.748;2022-07-29T09:16:48;5.03;;;4.57;;
6626;SDS011;3349;49.830;8.748;2022-07-29T09:19:19;6.68;;;4.82;;
6626;SDS011;3349;49.830;8.748;2022-07-29T09:21:52;5.07;;;4.57;;
6626;SDS011;3349;49.830;8.748;2022-07-29T09:24:29;5.13;;;4.60;;
6626;SDS011;3349;49.830;8.748;2022-07-29T09:27:07;7.82;;;4.85;;
6626;SDS011;3349;49.830;8.748;2022-07-29T09:29:37;5.00;;;4.60;;
6626;SDS011;3349;49.830;8.748;2022-07-29T09:32:06;5.55;;;4.75;;
6626;SDS011;3349;49.830;8.748;2022-07-29T09:34:35;5.30;;;4.80;;
6626;SDS011;3349;49.830;8.748;2022-07-29T09:37:03;6.30;;;5.15;;
6626;SDS011;3349;49.830;8.748;2022-07-29T09:39:31;5.28;;;4.78;;
6626;SDS011;3349;49.830;8.748;2022-07-29T09:42:00;6.35;;;5.03;;
6626;SDS011;3349;49.830;8.748;2022-07-29T09:44:40;6.57;;;5.00;;
6626;SDS011;3349;49.830;8.748;2022-07-29T09:47:08;5.80;;;4.70;;
6626;SDS011;3349;49.830;8.748;2022-07-29T09:49:35;5.90;;;5.40;;
6626;SDS011;3349;49.830;8.748;2022-07-29T09:52:18;5.55;;;5.05;;
6626;SDS011;3349;49.830;8.748;2022-07-29T09:54:45;5.78;;;5.05;;
6626;SDS011;3349;49.830;8.748;2022-07-29T09:57:21;7.80;;;5.38;;
6626;SDS011;3349;49.830;8.748;2022-07-29T09:59:55;6.65;;;5.30;;
6626;SDS011;3349;49.830;8.748;2022-07-29T10:02:22;5.40;;;4.90;;
6626;SDS011;3349;49.830;8.748;2022-07-29T10:04:54;7.07;;;5.53;;
6626;SDS011;3349;49.830;8.748;2022-07-29T10:07:23;6.82;;;5.63;;
6626;SDS011;3349;49.830;8.748;2022-07-29T10:09:52;6.15;;;5.65;;
6626;SDS011;3349;49.830;8.748;2022-07-29T10:12:20;7.82;;;6.32;;
6626;SDS011;3349;49.830;8.748;2022-07-29T10:14:47;5.90;;;5.30;;
6626;SDS011;3349;49.830;8.748;2022-07-29T10:17:15;6.43;;;5.93;;
6626;SDS011;3349;49.830;8.748;2022-07-29T10:19:43;5.93;;;5.40;;
6626;SDS011;3349;49.830;8.748;2022-07-29T10:22:10;7.10;;;5.45;;
6626;SDS011;3349;49.830;8.748;2022-07-29T10:24:38;5.43;;;5.03;;
6626;SDS011;3349;49.830;8.748;2022-07-29T10:27:06;5.88;;;5.47;;
6626;SDS011;3349;49.830;8.748;2022-07-29T10:29:34;6.13;;;5.57;;
6626;SDS011;3349;49.830;8.748;2022-07-29T10:32:13;5.70;;;5.30;;
6626;SDS011;3349;49.830;8.748;2022-07-29T10:34:52;6.47;;;5.88;;
6626;SDS011;3349;49.830;8.748;2022-07-29T10:37:33;6.70;;;6.10;;
6626;SDS011;3349;49.830;8.748;2022-07-29T10:40:14;8.88;;;6.18;;
6626;SDS011;3349;49.830;8.748;2022-07-29T10:43:07;6.80;;;5.30;;
6626;SDS011;3349;49.830;8.748;2022-07-29T10:45:44;5.45;;;5.03;;
6626;SDS011;3349;49.830;8.748;2022-07-29T10:48:13;5.93;;;5.50;;
6626;SDS011;3349;49.830;8.748;2022-07-29T10:50:52;6.80;;;6.20;;
6626;SDS011;3349;49.830;8.748;2022-07-29T10:53:21;5.90;;;5.45;;
6626;SDS011;3349;49.830;8.748;2022-07-29T10:55:49;6.18;;;5.63;;
6626;SDS011;3349;49.830;8.748;2022-07-29T10:58:17;5.60;;;5.18;;
6626;SDS011;3349;49.830;8.748;2022-07-29T11:00:46;5.60;;;5.20;;
6626;SDS011;3349;49.830;8.748;2022-07-29T11:06:09;6.53;;;5.93;;
6626;SDS011;3349;49.830;8.748;2022-07-29T11:08:36;6.18;;;5.68;;
6626;SDS011;3349;49.830;8.748;2022-07-29T11:14:03;6.50;;;6.00;;
6626;SDS011;3349;49.830;8.748;2022-07-29T11:19:25;6.85;;;6.35;;
6626;SDS011;3349;49.830;8.748;2022-07-29T11:21:52;6.07;;;5.68;;
6626;SDS011;3349;49.830;8.748;2022-07-29T11:24:20;6.68;;;6.15;;
6626;SDS011;3349;49.830;8.748;2022-07-29T11:27:09;6.70;;;5.85;;
6626;SDS011;3349;49.830;8.748;2022-07-29T11:29:47;8.57;;;5.80;;
6626;SDS011;3349;49.830;8.748;2022-07-29T11:32:18;6.47;;;5.65;;
6626;SDS011;3349;49.830;8.748;2022-07-29T11:34:46;6.85;;;6.05;;
6626;SDS011;3349;49.830;8.748;2022-07-29T11:37:20;8.00;;;6.00;;
6626;SDS011;3349;49.830;8.748;2022-07-29T11:42:40;8.68;;;6.35;;
6626;SDS011;3349;49.830;8.748;2022-07-29T11:45:11;5.93;;;5.43;;
6626;SDS011;3349;49.830;8.748;2022-07-29T11:47:41;6.28;;;5.80;;
6626;SDS011;3349;49.830;8.748;2022-07-29T11:50:14;6.30;;;5.70;;
6626;SDS011;3349;49.830;8.748;2022-07-29T11:52:42;7.22;;;6.60;;
6626;SDS011;3349;49.830;8.748;2022-07-29T11:55:12;6.55;;;5.93;;
6626;SDS011;3349;49.830;8.748;2022-07-29T11:57:48;6.10;;;5.50;;
6626;SDS011;3349;49.830;8.748;2022-07-29T12:00:21;6.50;;;5.90;;
6626;SDS011;3349;49.830;8.748;2022-07-29T12:03:00;7.03;;;5.90;;
6626;SDS011;3349;49.830;8.748;2022-07-29T12:05:37;6.55;;;5.95;;
6626;SDS011;3349;49.830;8.748;2022-07-29T12:08:09;6.32;;;5.82;;
6626;SDS011;3349;49.830;8.748;2022-07-29T12:10:38;6.32;;;5.93;;
6626;SDS011;3349;49.830;8.748;2022-07-29T12:13:07;6.57;;;6.07;;
6626;SDS011;3349;49.830;8.748;2022-07-29T12:15:34;6.60;;;6.00;;
6626;SDS011;3349;49.830;8.748;2022-07-29T12:18:11;6.72;;;6.18;;
6626;SDS011;3349;49.830;8.748;2022-07-29T12:20:43;8.88;;;6.10;;
6626;SDS011;3349;49.830;8.748;2022-07-29T12:23:10;7.40;;;6.80;;
6626;SDS011;3349;49.830;8.748;2022-07-29T12:25:38;6.57;;;6.07;;
6626;SDS011;3349;49.830;8.748;2022-07-29T12:28:08;6.55;;;6.05;;
6626;SDS011;3349;49.830;8.748;2022-07-29T12:30:41;6.18;;;5.72;;
6626;SDS011;3349;49.830;8.748;2022-07-29T12:33:16;6.53;;;6.00;;
6626;SDS011;3349;49.830;8.748;2022-07-29T12:35:46;6.75;;;6.15;;
6626;SDS011;3349;49.830;8.748;2022-07-29T12:38:15;6.90;;;6.30;;
6626;SDS011;3349;49.830;8.748;2022-07-29T12:40:43;6.50;;;5.90;;
6626;SDS011;3349;49.830;8.748;2022-07-29T12:43:13;6.03;;;5.53;;
6626;SDS011;3349;49.830;8.748;2022-07-29T12:45:41;6.90;;;6.35;;
6626;SDS011;3349;49.830;8.748;2022-07-29T12:48:09;6.30;;;5.70;;
6626;SDS011;3349;49.830;8.748;2022-07-29T12:50:47;6.13;;;5.63;;
6626;SDS011;3349;49.830;8.748;2022-07-29T12:53:18;6.65;;;6.15;;
6626;SDS011;3349;49.830;8.748;2022-07-29T12:55:46;6.00;;;5.47;;
6626;SDS011;3349;49.830;8.748;2022-07-29T12:58:27;6.53;;;6.00;;
6626;SDS011;3349;49.830;8.748;2022-07-29T13:01:05;6.28;;;5.78;;
6626;SDS011;3349;49.830;8.748;2022-07-29T13:03:47;6.45;;;5.85;;
6626;SDS011;3349;49.830;8.748;2022-07-29T13:06:30;5.78;;;5.30;;
6626;SDS011;3349;49.830;8.748;2022-07-29T13:08:58;6.43;;;6.00;;
6626;SDS011;3349;49.830;8.748;2022-07-29T13:11:36;7.63;;;5.80;;
6626;SDS011;3349;49.830;8.748;2022-07-29T13:14:05;6.65;;;5.55;;
6626;SDS011;3349;49.830;8.748;2022-07-29T13:16:34;5.70;;;5.20;;
6626;SDS011;3349;49.830;8.748;2022-07-29T13:19:05;5.53;;;5.03;;
6626;SDS011;3349;49.830;8.748;2022-07-29T13:21:37;6.28;;;5.68;;
6626;SDS011;3349;49.830;8.748;2022-07-29T13:24:05;6.07;;;5.57;;
6626;SDS011;3349;49.830;8.748;2022-07-29T13:26:32;5.70;;;5.30;;
6626;SDS011;3349;49.830;8.748;2022-07-29T13:28:59;6.18;;;5.55;;
6626;SDS011;3349;49.830;8.748;2022-07-29T13:31:27;5.82;;;5.22;;
6626;SDS011;3349;49.830;8.748;2022-07-29T13:33:54;5.95;;;5.40;;
6626;SDS011;3349;49.830;8.748;2022-07-29T13:36:21;6.72;;;5.15;;
6626;SDS011;3349;49.830;8.748;2022-07-29T13:38:48;5.70;;;5.20;;
6626;SDS011;3349;49.830;8.748;2022-07-29T13:41:15;5.88;;;5.13;;
6626;SDS011;3349;49.830;8.748;2022-07-29T13:43:41;6.30;;;5.60;;
6626;SDS011;3349;49.830;8.748;2022-07-29T13:46:08;5.05;;;4.70;;
6626;SDS011;3349;49.830;8.748;2022-07-29T13:48:37;6.40;;;4.82;;
6626;SDS011;3349;49.830;8.748;2022-07-29T13:51:03;9.43;;;5.28;;
6626;SDS011;3349;49.830;8.748;2022-07-29T13:53:30;5.00;;;4.60;;
6626;SDS011;3349;49.830;8.748;2022-07-29T13:55:57;5.40;;;4.90;;
6626;SDS011;3349;49.830;8.748;2022-07-29T13:58:24;5.47;;;4.80;;
6626;SDS011;3349;49.830;8.748;2022-07-29T14:00:51;5.65;;;5.05;;
6626;SDS011;3349;49.830;8.748;2022-07-29T14:03:18;5.22;;;4.82;;
6626;SDS011;3349;49.830;8.748;2022-07-29T14:05:46;8.07;;;4.95;;
6626;SDS011;3349;49.830;8.748;2022-07-29T14:08:13;5.25;;;4.75;;
6626;SDS011;3349;49.830;8.748;2022-07-29T14:10:40;8.15;;;5.10;;
6626;SDS011;3349;49.830;8.748;2022-07-29T14:13:07;5.40;;;4.90;;
6626;SDS011;3349;49.830;8.748;2022-07-29T14:15:33;6.65;;;4.95;;
6626;SDS011;3349;49.830;8.748;2022-07-29T14:18:00;6.47;;;5.03;;
6626;SDS011;3349;49.830;8.748;2022-07-29T14:20:27;7.22;;;4.55;;
6626;SDS011;3349;49.830;8.748;2022-07-29T14:22:56;5.47;;;4.75;;
6626;SDS011;3349;49.830;8.748;2022-07-29T14:25:23;4.93;;;4.53;;
6626;SDS011;3349;49.830;8.748;2022-07-29T14:27:50;6.18;;;4.75;;
6626;SDS011;3349;49.830;8.748;2022-07-29T14:30:18;5.85;;;4.75;;
6626;SDS011;3349;49.830;8.748;2022-07-29T14:32:45;5.15;;;4.65;;
6626;SDS011;3349;49.830;8.748;2022-07-29T14:35:12;6.00;;;5.13;;
6626;SDS011;3349;49.830;8.748;2022-07-29T14:37:40;5.45;;;4.95;;
6626;SDS011;3349;49.830;8.748;2022-07-29T14:40:09;6.20;;;5.25;;
6626;SDS011;3349;49.830;8.748;2022-07-29T14:42:37;5.53;;;4.97;;
6626;SDS011;3349;49.830;8.748;2022-07-29T14:45:04;5.78;;;4.85;;
6626;SDS011;3349;49.830;8.748;2022-07-29T14:47:32;5.93;;;5.05;;
6626;SDS011;3349;49.830;8.748;2022-07-29T14:49:59;7.78;;;5.13;;
6626;SDS011;3349;49.830;8.748;2022-07-29T14:52:25;5.85;;;4.88;;
6626;SDS011;3349;49.830;8.748;2022-07-29T14:54:52;5.53;;;4.88;;
6626;SDS011;3349;49.830;8.748;2022-07-29T14:57:20;7.05;;;5.00;;
6626;SDS011;3349;49.830;8.748;2022-07-29T14:59:47;5.18;;;4.68;;
6626;SDS011;3349;49.830;8.748;2022-07-29T15:02:14;7.13;;;5.07;;
6626;SDS011;3349;49.830;8.748;2022-07-29T15:04:41;5.80;;;5.20;;
6626;SDS011;3349;49.830;8.748;2022-07-29T15:07:08;8.48;;;5.55;;
6626;SDS011;3349;49.830;8.748;2022-07-29T15:09:35;7.53;;;4.70;;
6626;SDS011;3349;49.830;8.748;2022-07-29T15:12:02;6.85;;;4.70;;
6626;SDS011;3349;49.830;8.748;2022-07-29T15:14:31;5.78;;;4.93;;
6626;SDS011;3349;49.830;8.748;2022-07-29T15:16:58;6.65;;;4.63;;
6626;SDS011;3349;49.830;8.748;2022-07-29T15:19:24;5.55;;;5.00;;
6626;SDS011;3349;49.830;8.748;2022-07-29T15:21:51;6.38;;;4.97;;
6626;SDS011;3349;49.830;8.748;2022-07-29T15:24:18;5.82;;;5.22;;
6626;SDS011;3349;49.830;8.748;2022-07-29T15:26:46;8.25;;;5.25;;
6626;SDS011;3349;49.830;8.748;2022-07-29T15:29:13;7.78;;;5.10;;
6626;SDS011;3349;49.830;8.748;2022-07-29T15:31:42;6.00;;;4.95;;
6626;SDS011;3349;49.830;8.748;2022-07-29T15:34:09;5.90;;;4.68;;
6626;SDS011;3349;49.830;8.748;2022-07-29T15:36:36;5.93;;;4.72;;
6626;SDS011;3349;49.830;8.748;2022-07-29T15:39:03;5.38;;;4.88;;